EDT,Max TemperatureF,Mean TemperatureF,Min TemperatureF,Max Dew PointF,MeanDew PointF,Min DewpointF,Max Humidity, Mean Humidity, Min Humidity, Max Sea Level PressureIn, Mean Sea Level PressureIn, Min Sea Level PressureIn, Max VisibilityMiles, Mean VisibilityMiles, Min VisibilityMiles, Max Wind SpeedMPH, Mean Wind SpeedMPH, Max Gust SpeedMPH,PrecipitationIn, CloudCover, Events, WindDirDegrees
2013-8-1,75,70,64,68,65,63,97,87,69,30.07,29.99,29.91,10,10,7,12,5,,0.03,3,Rain,161
2013-8-2,75,70,66,70,66,64,100,89,76,29.92,29.86,29.81,10,9,7,17,8,23,0.01,5,Rain,177
2013-8-3,72,69,66,68,66,64,96,90,78,29.92,29.88,29.83,10,7,2,18,13,26,0.25,3,Rain,240
2013-8-4,75,68,61,65,60,54,97,74,55,29.86,29.82,29.79,10,9,4,14,9,28,0.00,0,Thunderstorm,274
2013-8-5,72,67,62,58,54,51,86,64,49,30.04,29.96,29.86,10,10,10,18,14,24,0.00,0,,285
2013-8-6,73,65,57,59,54,51,93,68,46,30.17,30.12,30.04,10,10,10,10,5,,0.00,0,,124
2013-8-7,73,64,57,62,56,52,97,76,49,30.20,30.18,30.16,10,10,8,12,5,,0.00,0,,142
2013-8-8,75,67,61,69,66,59,96,89,79,30.15,30.12,30.08,10,10,10,12,8,,0.03,3,,180
2013-8-9,73,70,69,71,69,66,100,94,87,30.10,29.96,29.84,10,8,3,24,14,31,0.05,5,Rain,182
2013-8-10,80,73,68,70,67,62,100,88,58,30.00,29.88,29.82,10,5,0,17,11,24,0.01,2,Fog,262
2013-8-11,75,68,61,60,56,48,87,65,40,30.08,30.05,30.00,10,10,10,13,8,,0.00,0,,276
2013-8-12,73,68,64,68,65,61,96,87,76,30.06,30.00,29.94,10,10,5,13,8,,0.00,5,,199
2013-8-13,70,66,64,68,66,63,100,96,93,29.93,29.82,29.66,10,4,0,20,3,,0.50,7,Fog-Rain-Thunderstorm,94
2013-8-14,73,68,64,66,60,51,100,79,48,29.94,29.75,29.69,10,8,2,22,9,28,0.00,2,,272
2013-8-15,72,68,63,57,52,49,78,59,44,30.11,30.06,29.97,10,10,10,16,12,22,0.00,0,,290
2013-8-16,73,68,62,63,61,59,90,77,66,30.22,30.18,30.15,10,10,10,14,10,,0.00,0,,229
2013-8-17,75,67,59,63,60,57,100,80,53,30.28,30.25,30.21,10,9,1,9,3,,0.00,0,,256
2013-8-18,73,65,57,64,58,56,100,86,55,30.28,30.24,30.10,10,7,0,9,2,,0.26,2,Fog-Rain,85
2013-8-19,73,65,57,66,62,55,93,86,73,30.08,30.03,29.99,10,10,8,15,8,,0.14,0,Rain,258
2013-8-20,78,72,66,67,65,63,93,81,62,30.11,30.06,29.99,10,9,6,10,8,,0.01,1,Rain,258
2013-8-21,79,70,64,70,68,64,100,91,71,30.16,30.11,30.07,10,6,0,12,7,,0.00,1,Fog,236
2013-8-22,75,70,68,70,69,67,100,96,87,30.07,30.00,29.89,8,4,0,16,11,,0.01,6,Fog,226
2013-8-23,77,69,63,70,64,57,100,85,62,30.08,29.91,29.83,10,8,1,26,12,32,0.00,4,,314
2013-8-24,71,62,54,58,54,47,86,68,49,30.33,30.24,30.10,10,10,10,22,11,28,0.00,0,,19
2013-8-25,75,62,52,63,57,45,93,74,55,30.37,30.31,30.25,10,10,10,14,7,,0.00,0,,260
2013-8-26,72,69,66,66,65,63,94,88,78,30.24,30.06,29.93,10,10,7,22,13,25,0.00,4,,230
2013-8-27,70,67,64,68,66,64,100,96,93,29.88,29.85,29.83,9,2,0,14,8,,0.84,8,Fog-Rain,78
2013-8-28,73,67,62,66,64,63,100,95,78,29.94,29.88,29.85,10,3,0,12,8,,0.00,8,Fog,16
2013-8-29,69,66,62,65,63,57,100,92,81,30.02,29.98,29.93,10,6,0,20,14,24,0.00,8,Fog,29
2013-8-30,70,65,60,66,61,55,97,84,76,29.99,29.93,29.89,10,9,6,20,11,24,0.00,6,,281
2013-8-31,75,70,66,69,67,66,100,92,83,29.90,29.88,29.87,9,7,3,15,12,,0.00,3,,218